Terminal Aerodrome Forecast
Issued by NWS Sterling, VA

Current Version | Previous Version | Graphics & Text | Print | Product List | Glossary On
Versions: 1 2 3 4 5 6 7 8 9 10 11 12 13 14 15 16 17 18 19 20 21 22 23 24
000
FTUS41 KLWX 311400 AAA
TAFDCA
TAF AMD
KDCA 311439Z 3115/0112 31015KT P6SM FEW250
     FM312100 31009KT P6SM FEW250
     FM010100 31005KT P6SM FEW250
     FM011000 22004KT P6SM BKN250=

USA.gov is the U.S. government's official web portal to all federal, state and local government web resources and services.